Contest status
 
 
# When Who Problem Lang Verdict Time Memory
18302127 Jun/08/2016 19:18 KK_Mr.BEAN 1 - Guess the Number GNU C++11 Idleness limit exceeded on test 1 0 ms 0 KB
18302126 Jun/08/2016 19:18 abhi2110 1 - Guess the Number GNU C++ Wrong answer on test 1 15 ms 2200 KB
18302125 Jun/08/2016 19:18 cvetoslav 1 - Guess the Number GNU C++11 Wrong answer on test 1 15 ms 2000 KB
18302124 Jun/08/2016 19:17 alexandru.ghergut 1 - Guess the Number GNU C++11 Wrong answer on test 1 15 ms 2000 KB
18302123 Jun/08/2016 19:17 ajs97 1 - Guess the Number GNU C++ Accepted 15 ms 2200 KB
18302122 Jun/08/2016 19:17 Salama96 1 - Guess the Number GNU C++11 Time limit exceeded on test 1 1000 ms 2200 KB
18302121 Jun/08/2016 19:17 Contemplator311 1 - Guess the Number GNU C++ Accepted 15 ms 2200 KB
18302120 Jun/08/2016 19:17 Renyxa 1 - Guess the Number GNU C++11 Time limit exceeded on test 1 1000 ms 2000 KB
18302119 Jun/08/2016 19:17 tripPple_A 1 - Guess the Number GNU C++ Idleness limit exceeded on test 1 0 ms 0 KB
18302118 Jun/08/2016 19:17 MesbahTanvir 1 - Guess the Number GNU C++11 Accepted 15 ms 2200 KB
18302117 Jun/08/2016 19:17 TouchMe 1 - Guess the Number GNU C++11 Wrong answer on test 6 15 ms 2000 KB
18302116 Jun/08/2016 19:17 amand26 1 - Guess the Number GNU C++ Idleness limit exceeded on test 1 0 ms 0 KB
18302115 Jun/08/2016 19:17 ankurjain 1 - Guess the Number GNU C++11 Wrong answer on test 1 0 ms 2000 KB
18302113 Jun/08/2016 19:17 pashka921 1 - Guess the Number GNU C++11 Idleness limit exceeded on test 1 0 ms 0 KB
18302112 Jun/08/2016 19:17 malev.alexey 1 - Guess the Number Java 8 Time limit exceeded on test 1 1000 ms 20300 KB
18302109 Jun/08/2016 19:17 nickmeller 1 - Guess the Number GNU C++11 Wrong answer on test 1 0 ms 2000 KB
18302108 Jun/08/2016 19:17 DeWitt 1 - Guess the Number GNU C++11 Wrong answer on test 2 0 ms 2000 KB
18302106 Jun/08/2016 19:17 fr0st 1 - Guess the Number MS C# Time limit exceeded on test 1 1000 ms 11500 KB
18302104 Jun/08/2016 19:17 Contemplator311 1 - Guess the Number GNU C++ Compilation error 0 ms 0 KB
18302103 Jun/08/2016 19:17 SEXY_LOSER 1 - Guess the Number GNU C++11 Accepted 15 ms 2200 KB
18302102 Jun/08/2016 19:17 yash17 1 - Guess the Number Java 8 Time limit exceeded on test 2 1000 ms 20300 KB
18302101 Jun/08/2016 19:17 devendra_sharma 1 - Guess the Number GNU C++ Accepted 15 ms 2200 KB
18302100 Jun/08/2016 19:17 AnonymousBunny 1 - Guess the Number GNU C++ Wrong answer on test 1 15 ms 2000 KB
18302099 Jun/08/2016 19:17 Renyxa 1 - Guess the Number GNU C++11 Time limit exceeded on test 1 1000 ms 2000 KB
18302098 Jun/08/2016 19:17 mehrunesartem 1 - Guess the Number GNU C++11 Accepted 15 ms 2200 KB
18302097 Jun/08/2016 19:17 Mirlan 1 - Guess the Number MS C++ Idleness limit exceeded on test 1 0 ms 0 KB
18302095 Jun/08/2016 19:17 joyfun 1 - Guess the Number GNU C++11 Accepted 15 ms 2000 KB
18302094 Jun/08/2016 19:17 RohanRTiwari 1 - Guess the Number GNU C++ Accepted 15 ms 2200 KB
18302091 Jun/08/2016 19:16 tgamerz 1 - Guess the Number GNU C++11 Accepted 15 ms 2200 KB
18302090 Jun/08/2016 19:16 eat_code 1 - Guess the Number GNU C++11 Accepted 15 ms 2200 KB
18302088 Jun/08/2016 19:16 Renyxa 1 - Guess the Number GNU C++11 Time limit exceeded on test 1 1000 ms 2000 KB
18302086 Jun/08/2016 19:16 Gavin0 1 - Guess the Number GNU C++ Time limit exceeded on test 2 1000 ms 2200 KB
18302085 Jun/08/2016 19:16 NedoL 1 - Guess the Number GNU C++11 Accepted 15 ms 2200 KB
18302084 Jun/08/2016 19:16 omgcoin 1 - Guess the Number GNU C++11 Wrong answer on test 1 0 ms 2000 KB
18302082 Jun/08/2016 19:16 wumaodang 1 - Guess the Number GNU C++ Accepted 30 ms 2000 KB
18302081 Jun/08/2016 19:16 harshasrinivas 1 - Guess the Number GNU C++ Idleness limit exceeded on test 1 0 ms 0 KB
18302080 Jun/08/2016 19:16 TouchMe 1 - Guess the Number GNU C++11 Accepted 15 ms 2200 KB
18302078 Jun/08/2016 19:16 meixinyu 1 - Guess the Number GNU C++11 Wrong answer on test 4 15 ms 2000 KB
18302077 Jun/08/2016 19:16 NedoL 1 - Guess the Number GNU C++11 Accepted 15 ms 2200 KB
18302075 Jun/08/2016 19:16 Atomy 1 - Guess the Number GNU C++11 Time limit exceeded on test 1 1000 ms 2000 KB
18302073 Jun/08/2016 19:16 bangdang 1 - Guess the Number GNU C++11 Accepted 15 ms 2000 KB
18302071 Jun/08/2016 19:16 cvetoslav 1 - Guess the Number GNU C++11 Wrong answer on test 1 15 ms 2200 KB
18302070 Jun/08/2016 19:16 Accepted-_- 1 - Guess the Number GNU C++11 Accepted 15 ms 2000 KB
18302068 Jun/08/2016 19:16 BagInCode 1 - Guess the Number GNU C++11 Idleness limit exceeded on test 1 0 ms 0 KB
18302067 Jun/08/2016 19:16 meixinyu 1 - Guess the Number GNU C++11 Idleness limit exceeded on test 1 0 ms 0 KB
18302066 Jun/08/2016 19:16 Ishan.nitj 1 - Guess the Number GNU C++11 Wrong answer on test 1 15 ms 2000 KB
18302061 Jun/08/2016 19:16 nighthowler 1 - Guess the Number GNU C++11 Idleness limit exceeded on test 1 0 ms 0 KB
18302060 Jun/08/2016 19:16 joyfun 1 - Guess the Number GNU C++11 Wrong answer on test 6 15 ms 2000 KB
18302059 Jun/08/2016 19:16 Fluid 1 - Guess the Number GNU C++11 Wrong answer on test 6 0 ms 2200 KB
18302058 Jun/08/2016 19:16 li924579 1 - Guess the Number GNU C++11 Accepted 30 ms 2200 KB
Sort by: